Time;durP1;ratioP1;P1;durP2;ratioP2;P2;SDS_P1;SDS_P2;PMS_P1;PMS_P2;Temp;Humidity;BMP_temperature;BMP_pressure;BME280_temperature;BME280_humidity;BME280_pressure;Samples;Min_cycle;Max_cycle;Signal;HPM_P1;HPM_P2
2021/09/16 00:00:10;;;;;;;4.33;1.53;;;;;;;;;;5074812;28;20271;-72
2021/09/16 00:02:37;;;;;;;3.63;0.70;;;;;;;;;;5074516;28;20260;-72
2021/09/16 00:05:04;;;;;;;3.07;0.90;;;;;;;;;;5074986;28;20264;-72
2021/09/16 00:07:31;;;;;;;6.67;1.60;;;;;;;;;;5075465;28;20221;-72
2021/09/16 00:09:57;;;;;;;4.07;0.90;;;;;;;;;;5076926;28;20207;-72
2021/09/16 00:12:23;;;;;;;4.57;0.87;;;;;;;;;;5074657;28;20214;-72
2021/09/16 00:14:50;;;;;;;3.13;1.03;;;;;;;;;;5076974;28;20206;-72
2021/09/16 00:17:18;;;;;;;3.33;1.00;;;;;;;;;;5073800;28;20673;-72
2021/09/16 00:19:46;;;;;;;7.13;1.53;;;;;;;;;;5075305;28;20350;-72
2021/09/16 00:22:12;;;;;;;5.13;1.00;;;;;;;;;;5076491;28;20281;-72
2021/09/16 00:24:38;;;;;;;4.77;0.90;;;;;;;;;;5073968;28;20265;-72
2021/09/16 00:27:05;;;;;;;2.83;0.83;;;;;;;;;;5074721;28;20633;-72
2021/09/16 00:29:32;;;;;;;5.17;1.17;;;;;;;;;;5075787;28;20206;-71
2021/09/16 00:31:58;;;;;;;4.90;0.90;;;;;;;;;;5074607;28;20255;-72
2021/09/16 00:34:26;;;;;;;3.23;0.67;;;;;;;;;;5074327;28;20216;-71
2021/09/16 00:36:52;;;;;;;4.00;1.00;;;;;;;;;;5074249;28;20299;-72
2021/09/16 00:39:19;;;;;;;3.17;0.87;;;;;;;;;;5077091;28;20597;-72
2021/09/16 00:41:45;;;;;;;5.93;0.80;;;;;;;;;;5076295;28;20230;-72
2021/09/16 00:44:11;;;;;;;4.17;0.70;;;;;;;;;;5074990;28;20205;-72
2021/09/16 00:46:38;;;;;;;8.77;1.77;;;;;;;;;;5073770;28;20231;-72
2021/09/16 00:49:06;;;;;;;2.73;1.00;;;;;;;;;;5075300;28;20213;-72
2021/09/16 00:51:35;;;;;;;3.87;0.90;;;;;;;;;;5073708;28;20202;-72
2021/09/16 00:54:03;;;;;;;4.37;1.13;;;;;;;;;;5075664;28;20267;-72
2021/09/16 00:56:30;;;;;;;6.07;1.87;;;;;;;;;;5075154;28;20632;-72
2021/09/16 00:58:59;;;;;;;6.37;1.03;;;;;;;;;;5072998;28;20298;-71
2021/09/16 01:01:26;;;;;;;3.97;1.07;;;;;;;;;;5074109;28;20270;-72
2021/09/16 01:03:53;;;;;;;4.63;1.47;;;;;;;;;;5073947;28;20261;-72
2021/09/16 01:06:20;;;;;;;7.27;1.57;;;;;;;;;;5073473;28;20649;-73
2021/09/16 01:08:48;;;;;;;4.80;1.50;;;;;;;;;;5074548;28;20206;-72
2021/09/16 01:11:14;;;;;;;6.77;1.70;;;;;;;;;;5076297;28;20656;-72
2021/09/16 01:13:43;;;;;;;5.23;1.50;;;;;;;;;;5079039;28;20221;-72
2021/09/16 01:16:09;;;;;;;3.50;1.40;;;;;;;;;;5078875;28;20209;-72
2021/09/16 01:18:36;;;;;;;8.00;1.83;;;;;;;;;;5077948;28;20229;-72
2021/09/16 01:21:02;;;;;;;5.60;1.33;;;;;;;;;;5080532;28;20237;-73
2021/09/16 01:23:30;;;;;;;3.07;1.30;;;;;;;;;;5078995;28;20210;-73
2021/09/16 01:25:56;;;;;;;5.03;1.60;;;;;;;;;;5077223;28;20214;-73
2021/09/16 01:28:23;;;;;;;5.00;1.20;;;;;;;;;;5078834;28;20600;-72
2021/09/16 01:30:49;;;;;;;3.53;1.40;;;;;;;;;;5077876;28;20596;-73
2021/09/16 01:33:16;;;;;;;5.13;1.63;;;;;;;;;;5079730;28;20229;-73
2021/09/16 01:35:43;;;;;;;4.53;1.70;;;;;;;;;;5079862;28;20221;-73
2021/09/16 01:38:10;;;;;;;5.40;1.40;;;;;;;;;;5079578;28;20233;-73
2021/09/16 01:40:38;;;;;;;8.63;1.80;;;;;;;;;;5078915;28;20270;-72
2021/09/16 01:43:04;;;;;;;5.13;1.60;;;;;;;;;;5079082;28;20238;-72
2021/09/16 01:45:31;;;;;;;5.87;2.00;;;;;;;;;;5079398;28;20210;-73
2021/09/16 01:47:57;;;;;;;5.30;1.70;;;;;;;;;;5078799;28;20226;-73
2021/09/16 01:50:26;;;;;;;3.23;1.70;;;;;;;;;;5077503;28;20270;-73
2021/09/16 01:52:53;;;;;;;4.53;1.53;;;;;;;;;;5077467;28;20209;-73
2021/09/16 01:55:19;;;;;;;3.30;1.50;;;;;;;;;;5077327;28;20631;-73
2021/09/16 01:57:47;;;;;;;3.90;1.40;;;;;;;;;;5077179;28;20209;-73
2021/09/16 02:00:14;;;;;;;4.60;1.40;;;;;;;;;;5077553;28;20692;-73
2021/09/16 02:02:41;;;;;;;4.63;1.30;;;;;;;;;;5077740;28;20237;-73
2021/09/16 02:05:09;;;;;;;5.17;1.63;;;;;;;;;;5080202;28;20209;-73
2021/09/16 02:07:35;;;;;;;4.70;1.50;;;;;;;;;;5078858;28;20389;-73
2021/09/16 02:10:02;;;;;;;4.07;1.97;;;;;;;;;;5077423;28;20712;-73
2021/09/16 02:12:28;;;;;;;4.33;1.90;;;;;;;;;;5076577;28;20640;-74
2021/09/16 02:14:56;;;;;;;5.50;2.03;;;;;;;;;;5075971;28;20256;-74
2021/09/16 02:17:22;;;;;;;7.70;2.00;;;;;;;;;;5077475;28;20224;-74
2021/09/16 02:19:49;;;;;;;5.73;2.37;;;;;;;;;;5077226;28;20210;-73
2021/09/16 02:22:15;;;;;;;5.83;3.10;;;;;;;;;;5075245;28;20275;-73
2021/09/16 02:24:42;;;;;;;5.17;2.97;;;;;;;;;;5077464;28;20217;-72
2021/09/16 02:27:08;;;;;;;7.23;3.17;;;;;;;;;;5075726;28;20575;-72
2021/09/16 02:29:34;;;;;;;6.73;3.30;;;;;;;;;;5077457;28;20258;-72
2021/09/16 02:32:02;;;;;;;4.63;2.57;;;;;;;;;;5078545;28;20278;-72
2021/09/16 02:34:29;;;;;;;5.07;2.37;;;;;;;;;;5076561;28;20218;-72
2021/09/16 02:36:55;;;;;;;4.10;2.00;;;;;;;;;;5076659;28;20236;-72
2021/09/16 02:39:21;;;;;;;4.57;2.33;;;;;;;;;;5078167;28;20601;-72
2021/09/16 02:41:48;;;;;;;5.53;2.10;;;;;;;;;;5077379;28;20303;-71
2021/09/16 02:44:14;;;;;;;5.10;2.37;;;;;;;;;;5078869;28;20216;-72
2021/09/16 02:46:40;;;;;;;4.03;2.83;;;;;;;;;;5076425;28;20271;-72
2021/09/16 02:49:08;;;;;;;4.57;2.33;;;;;;;;;;5075728;28;20225;-74
2021/09/16 02:51:35;;;;;;;6.33;2.47;;;;;;;;;;5077162;28;20215;-72
2021/09/16 02:54:01;;;;;;;4.93;2.83;;;;;;;;;;5076632;28;20848;-71
2021/09/16 02:56:27;;;;;;;4.47;2.60;;;;;;;;;;5076532;28;20513;-71
2021/09/16 02:58:54;;;;;;;5.43;2.67;;;;;;;;;;5076325;28;20217;-71
2021/09/16 03:01:20;;;;;;;4.87;2.77;;;;;;;;;;5077796;28;20217;-71
2021/09/16 03:03:46;;;;;;;5.93;2.70;;;;;;;;;;5077462;28;20744;-71
2021/09/16 03:06:14;;;;;;;5.40;3.40;;;;;;;;;;5074829;28;20222;-71
2021/09/16 03:08:40;;;;;;;4.73;3.90;;;;;;;;;;5075986;28;20282;-71
2021/09/16 03:11:07;;;;;;;6.17;4.23;;;;;;;;;;5076963;28;20217;-71
2021/09/16 03:13:33;;;;;;;7.03;4.33;;;;;;;;;;5077741;28;20280;-71
2021/09/16 03:16:00;;;;;;;6.37;4.30;;;;;;;;;;5076156;28;20268;-71
2021/09/16 03:18:26;;;;;;;6.87;4.63;;;;;;;;;;5074638;28;20279;-71
2021/09/16 03:20:52;;;;;;;9.30;4.60;;;;;;;;;;5076975;28;20222;-71
2021/09/16 03:23:20;;;;;;;7.67;5.03;;;;;;;;;;5075771;28;20230;-71
2021/09/16 03:25:47;;;;;;;9.57;5.30;;;;;;;;;;5077121;28;20214;-71
2021/09/16 03:28:13;;;;;;;13.40;6.53;;;;;;;;;;5076125;28;20268;-71
2021/09/16 03:30:39;;;;;;;13.87;7.40;;;;;;;;;;5077475;28;20220;-71
2021/09/16 03:33:06;;;;;;;15.87;8.20;;;;;;;;;;5075174;28;20301;-70
2021/09/16 03:35:32;;;;;;;16.03;7.80;;;;;;;;;;5077014;28;20241;-71
2021/09/16 03:37:59;;;;;;;17.47;7.77;;;;;;;;;;5076033;28;20263;-71
2021/09/16 03:40:26;;;;;;;14.60;7.53;;;;;;;;;;5075930;28;20213;-71
2021/09/16 03:42:53;;;;;;;13.10;7.23;;;;;;;;;;5075995;28;20695;-71
2021/09/16 03:45:20;;;;;;;13.17;7.47;;;;;;;;;;5076777;28;20608;-71
2021/09/16 03:47:46;;;;;;;14.53;6.87;;;;;;;;;;5076103;28;20226;-71
2021/09/16 03:50:13;;;;;;;12.97;6.93;;;;;;;;;;5076181;28;20226;-71
2021/09/16 03:52:39;;;;;;;19.47;7.37;;;;;;;;;;5075675;28;20268;-71
2021/09/16 03:55:07;;;;;;;16.73;7.63;;;;;;;;;;5076723;28;20214;-73
2021/09/16 03:57:35;;;;;;;15.27;6.60;;;;;;;;;;5076217;28;20218;-73
2021/09/16 04:00:01;;;;;;;12.63;5.87;;;;;;;;;;5074139;28;20220;-72
2021/09/16 04:02:28;;;;;;;13.13;5.93;;;;;;;;;;5072238;28;20249;-72
2021/09/16 04:04:54;;;;;;;16.80;7.63;;;;;;;;;;5076894;28;20217;-72
2021/09/16 04:07:20;;;;;;;14.87;7.40;;;;;;;;;;5074890;28;20214;-73
2021/09/16 04:09:47;;;;;;;15.23;6.60;;;;;;;;;;5075476;28;20217;-73
2021/09/16 04:12:13;;;;;;;12.10;6.53;;;;;;;;;;5073271;28;20215;-73
2021/09/16 04:14:41;;;;;;;11.10;5.83;;;;;;;;;;5075565;28;20232;-73
2021/09/16 04:17:07;;;;;;;14.10;5.67;;;;;;;;;;5073803;28;20781;-71
2021/09/16 04:19:34;;;;;;;9.70;4.80;;;;;;;;;;5076217;28;20223;-71
2021/09/16 04:22:00;;;;;;;16.13;6.03;;;;;;;;;;5074900;28;20237;-71
2021/09/16 04:24:26;;;;;;;10.33;4.77;;;;;;;;;;5074084;28;20263;-71
2021/09/16 04:26:53;;;;;;;9.57;5.43;;;;;;;;;;5077404;28;20221;-71
2021/09/16 04:29:19;;;;;;;10.17;4.93;;;;;;;;;;5073615;28;20214;-71
2021/09/16 04:31:47;;;;;;;10.15;5.28;;;;;;;;;;5074405;28;20481;-69
2021/09/16 04:34:13;;;;;;;13.03;6.03;;;;;;;;;;5074145;28;20749;-70
2021/09/16 04:36:40;;;;;;;11.13;5.40;;;;;;;;;;5077825;28;20233;-70
2021/09/16 04:39:06;;;;;;;11.17;5.83;;;;;;;;;;5075009;28;20219;-70
2021/09/16 04:41:34;;;;;;;11.17;5.23;;;;;;;;;;5072936;28;20488;-70
2021/09/16 04:44:00;;;;;;;8.97;5.60;;;;;;;;;;5074597;28;20233;-69
2021/09/16 04:46:27;;;;;;;9.37;5.80;;;;;;;;;;5072437;28;20617;-69
2021/09/16 04:48:54;;;;;;;12.50;7.10;;;;;;;;;;5074650;28;20487;-69
2021/09/16 04:51:21;;;;;;;11.93;5.87;;;;;;;;;;5075326;28;20307;-69
2021/09/16 04:53:47;;;;;;;8.63;5.67;;;;;;;;;;5075747;28;20208;-69
2021/09/16 04:56:14;;;;;;;11.10;5.33;;;;;;;;;;5076881;28;20291;-69
2021/09/16 04:58:40;;;;;;;11.00;5.70;;;;;;;;;;5076136;28;20727;-69
2021/09/16 05:01:07;;;;;;;15.83;6.80;;;;;;;;;;5074655;28;20626;-69
2021/09/16 05:03:33;;;;;;;10.93;5.50;;;;;;;;;;5073180;28;20237;-69
2021/09/16 05:06:01;;;;;;;12.10;6.60;;;;;;;;;;5072891;28;20214;-69
2021/09/16 05:08:27;;;;;;;10.70;6.07;;;;;;;;;;5073141;28;20218;-69
2021/09/16 05:10:53;;;;;;;12.97;6.00;;;;;;;;;;5072529;28;20282;-69
2021/09/16 05:13:20;;;;;;;18.30;6.80;;;;;;;;;;5075737;28;20214;-69
2021/09/16 05:15:46;;;;;;;15.73;6.87;;;;;;;;;;5073647;28;20265;-69
2021/09/16 05:18:12;;;;;;;11.83;5.53;;;;;;;;;;5073469;28;20502;-69
2021/09/16 05:20:39;;;;;;;16.67;6.27;;;;;;;;;;5072194;28;20218;-69
2021/09/16 05:23:07;;;;;;;15.17;5.83;;;;;;;;;;5072259;28;20648;-69
2021/09/16 05:25:33;;;;;;;13.10;6.27;;;;;;;;;;5074136;28;20222;-69
2021/09/16 05:28:00;;;;;;;19.77;6.20;;;;;;;;;;5074468;28;20211;-69
2021/09/16 05:30:26;;;;;;;10.57;5.80;;;;;;;;;;5071694;28;20210;-69
2021/09/16 05:32:52;;;;;;;14.23;6.03;;;;;;;;;;5072593;28;20275;-69
2021/09/16 05:35:19;;;;;;;12.60;5.67;;;;;;;;;;5072433;28;20211;-69
2021/09/16 05:37:45;;;;;;;12.93;5.70;;;;;;;;;;5074402;28;20303;-69
2021/09/16 05:40:15;;;;;;;8.93;5.67;;;;;;;;;;5072606;28;20218;-69
2021/09/16 05:42:41;;;;;;;11.20;5.00;;;;;;;;;;5074509;28;20715;-69
2021/09/16 05:45:09;;;;;;;13.10;5.87;;;;;;;;;;5072907;28;20215;-69
2021/09/16 05:47:36;;;;;;;11.73;5.30;;;;;;;;;;5074110;28;20333;-72
2021/09/16 05:50:03;;;;;;;10.77;4.87;;;;;;;;;;5071961;28;20219;-72
2021/09/16 05:52:29;;;;;;;9.37;4.30;;;;;;;;;;5073741;28;20564;-70
2021/09/16 05:54:55;;;;;;;11.37;4.77;;;;;;;;;;5073180;28;20215;-70
2021/09/16 05:57:23;;;;;;;12.07;4.53;;;;;;;;;;5076798;28;20262;-69
2021/09/16 05:59:49;;;;;;;11.60;4.10;;;;;;;;;;5078087;28;20213;-69
2021/09/16 06:02:16;;;;;;;9.97;3.33;;;;;;;;;;5076215;28;20244;-69
2021/09/16 06:04:42;;;;;;;10.33;3.53;;;;;;;;;;5076339;28;20682;-71
2021/09/16 06:07:08;;;;;;;14.53;4.00;;;;;;;;;;5077653;28;20673;-71
2021/09/16 06:09:35;;;;;;;8.20;3.17;;;;;;;;;;5075344;28;20210;-69
2021/09/16 06:12:02;;;;;;;11.10;3.70;;;;;;;;;;5075036;28;20275;-69
2021/09/16 06:14:30;;;;;;;7.70;3.40;;;;;;;;;;5076302;28;20202;-69
2021/09/16 06:16:57;;;;;;;7.20;3.13;;;;;;;;;;5074721;28;20509;-71
2021/09/16 06:19:23;;;;;;;7.73;3.13;;;;;;;;;;5075414;28;20442;-71
2021/09/16 06:21:49;;;;;;;7.77;2.80;;;;;;;;;;5074358;28;20267;-71
2021/09/16 06:24:16;;;;;;;7.97;2.67;;;;;;;;;;5074678;28;20260;-71
2021/09/16 06:26:43;;;;;;;14.30;3.83;;;;;;;;;;5077108;28;20576;-71
2021/09/16 06:29:10;;;;;;;5.97;2.60;;;;;;;;;;5076040;28;20243;-69
2021/09/16 06:31:38;;;;;;;9.73;2.83;;;;;;;;;;5076360;28;20240;-70
2021/09/16 06:34:04;;;;;;;7.07;2.50;;;;;;;;;;5076192;28;20213;-69
2021/09/16 06:36:30;;;;;;;8.10;2.60;;;;;;;;;;5075503;28;20571;-69
2021/09/16 06:38:57;;;;;;;6.23;2.17;;;;;;;;;;5075224;28;20269;-69
2021/09/16 06:41:23;;;;;;;8.00;2.37;;;;;;;;;;5074237;28;20676;-69
2021/09/16 06:43:50;;;;;;;5.03;2.43;;;;;;;;;;5075898;28;20238;-69
2021/09/16 06:46:16;;;;;;;6.30;2.90;;;;;;;;;;5075618;28;20777;-69
2021/09/16 06:48:44;;;;;;;7.70;2.80;;;;;;;;;;5075468;28;20212;-69
2021/09/16 06:51:10;;;;;;;8.37;3.17;;;;;;;;;;5073664;28;20215;-69
2021/09/16 06:53:36;;;;;;;7.17;3.03;;;;;;;;;;5075840;28;20210;-69
2021/09/16 06:56:03;;;;;;;7.33;2.57;;;;;;;;;;5075169;28;20222;-69
2021/09/16 06:58:29;;;;;;;7.00;2.83;;;;;;;;;;5073904;28;20310;-69
2021/09/16 07:00:56;;;;;;;6.17;2.97;;;;;;;;;;5073089;28;20704;-69
2021/09/16 07:03:22;;;;;;;6.47;2.90;;;;;;;;;;5070406;28;20639;-69
2021/09/16 07:05:50;;;;;;;7.50;2.70;;;;;;;;;;5075210;28;20271;-71
2021/09/16 07:08:16;;;;;;;7.57;2.70;;;;;;;;;;5070048;28;20214;-71
2021/09/16 07:10:43;;;;;;;10.57;2.43;;;;;;;;;;5076261;28;20235;-71
2021/09/16 07:13:09;;;;;;;5.40;2.17;;;;;;;;;;5073868;28;20225;-71
2021/09/16 07:15:36;;;;;;;10.83;2.20;;;;;;;;;;5073072;28;20222;-72
2021/09/16 07:18:02;;;;;;;5.87;1.90;;;;;;;;;;5073712;28;20257;-69
2021/09/16 07:20:28;;;;;;;13.30;2.70;;;;;;;;;;5071075;28;20257;-69
2021/09/16 07:22:56;;;;;;;6.00;2.10;;;;;;;;;;5072019;28;20290;-69
2021/09/16 07:25:23;;;;;;;8.33;2.00;;;;;;;;;;5071975;28;20258;-69
2021/09/16 07:27:49;;;;;;;7.77;2.20;;;;;;;;;;5075373;28;20622;-69
2021/09/16 07:30:16;;;;;;;11.47;2.33;;;;;;;;;;5071657;28;20214;-69
2021/09/16 07:32:42;;;;;;;6.47;2.00;;;;;;;;;;5074111;28;20230;-69
2021/09/16 07:35:10;;;;;;;9.47;2.17;;;;;;;;;;5070373;28;20215;-70
2021/09/16 07:37:36;;;;;;;6.37;2.13;;;;;;;;;;5073961;28;20235;-69
2021/09/16 07:40:05;;;;;;;7.00;1.87;;;;;;;;;;5073544;28;20259;-69
2021/09/16 07:42:32;;;;;;;7.50;1.73;;;;;;;;;;5070491;28;20221;-69
2021/09/16 07:44:58;;;;;;;5.10;1.90;;;;;;;;;;5072756;28;20239;-69
2021/09/16 07:47:25;;;;;;;7.60;1.90;;;;;;;;;;5071456;28;20308;-70
2021/09/16 07:49:51;;;;;;;6.87;1.60;;;;;;;;;;5073496;28;20637;-70
2021/09/16 07:52:17;;;;;;;4.70;1.80;;;;;;;;;;5073039;28;20725;-70
2021/09/16 07:54:44;;;;;;;5.77;1.83;;;;;;;;;;5074123;28;20607;-69
2021/09/16 07:57:11;;;;;;;5.73;1.77;;;;;;;;;;5073045;28;20219;-69
2021/09/16 07:59:38;;;;;;;5.10;1.50;;;;;;;;;;5072267;28;20208;-69
2021/09/16 08:02:04;;;;;;;9.23;2.10;;;;;;;;;;5071698;28;20264;-69
2021/09/16 08:04:31;;;;;;;8.27;1.67;;;;;;;;;;5071404;28;20284;-69
2021/09/16 08:06:57;;;;;;;6.53;2.10;;;;;;;;;;5072965;28;20211;-70
2021/09/16 08:09:25;;;;;;;4.40;1.50;;;;;;;;;;5074115;28;20220;-69
2021/09/16 08:11:51;;;;;;;5.87;1.77;;;;;;;;;;5074877;28;20211;-69
2021/09/16 08:14:19;;;;;;;7.20;1.73;;;;;;;;;;5065275;28;20212;-70
2021/09/16 08:16:46;;;;;;;5.17;1.23;;;;;;;;;;5068443;28;20245;-69
2021/09/16 08:19:12;;;;;;;8.83;1.80;;;;;;;;;;5067554;28;20903;-70
2021/09/16 08:21:38;;;;;;;7.67;1.83;;;;;;;;;;5066878;28;20211;-70
2021/09/16 08:24:05;;;;;;;6.67;1.53;;;;;;;;;;5069067;28;20348;-70
2021/09/16 08:26:32;;;;;;;7.27;1.50;;;;;;;;;;5070264;28;20228;-70
2021/09/16 08:28:59;;;;;;;5.00;1.97;;;;;;;;;;5069927;28;20224;-70
2021/09/16 08:31:27;;;;;;;9.40;2.50;;;;;;;;;;5070180;28;20304;-70
2021/09/16 08:33:53;;;;;;;7.63;1.70;;;;;;;;;;5068449;28;20208;-70
2021/09/16 08:36:20;;;;;;;3.67;1.30;;;;;;;;;;5067466;28;20210;-70
2021/09/16 08:38:46;;;;;;;5.10;1.60;;;;;;;;;;5066871;28;20267;-70
2021/09/16 08:41:12;;;;;;;6.37;1.70;;;;;;;;;;5067489;28;20362;-70
2021/09/16 08:43:42;;;;;;;5.97;1.33;;;;;;;;;;5067250;28;20282;-72
2021/09/16 08:46:09;;;;;;;5.20;1.80;;;;;;;;;;5069390;28;20546;-72
2021/09/16 08:48:37;;;;;;;4.70;1.50;;;;;;;;;;5069145;28;20587;-72
2021/09/16 08:51:03;;;;;;;9.10;1.83;;;;;;;;;;5060921;28;20206;-70
2021/09/16 08:53:31;;;;;;;3.57;1.37;;;;;;;;;;5074619;28;20623;-70
2021/09/16 08:56:01;;;;;;;5.90;1.60;;;;;;;;;;5069042;28;20315;-70
2021/09/16 08:58:29;;;;;;;4.23;1.50;;;;;;;;;;5068169;28;20325;-70
2021/09/16 09:00:56;;;;;;;7.80;1.03;;;;;;;;;;5068340;28;20213;-70
2021/09/16 09:03:23;;;;;;;5.23;1.20;;;;;;;;;;5068880;28;20776;-70
2021/09/16 09:05:50;;;;;;;4.33;1.30;;;;;;;;;;5070005;28;20238;-70
2021/09/16 09:08:22;;;;;;;6.73;1.70;;;;;;;;;;5066011;28;21109;-70
2021/09/16 09:10:50;;;;;;;7.13;1.87;;;;;;;;;;5069325;28;20220;-70
2021/09/16 09:13:18;;;;;;;8.67;1.60;;;;;;;;;;5066689;28;20243;-70
2021/09/16 09:15:47;;;;;;;4.77;1.90;;;;;;;;;;5068105;28;20220;-70
2021/09/16 09:18:15;;;;;;;6.67;2.07;;;;;;;;;;5069645;28;20281;-70
2021/09/16 09:21:01;;;;;;;5.37;1.70;;;;;;;;;;5069101;28;20221;-70
2021/09/16 09:23:30;;;;;;;4.57;1.67;;;;;;;;;;5064976;28;20247;-70
2021/09/16 09:25:58;;;;;;;4.40;1.30;;;;;;;;;;5068669;28;20219;-70
2021/09/16 09:28:30;;;;;;;7.00;1.63;;;;;;;;;;5065291;28;20217;-70
2021/09/16 09:30:58;;;;;;;4.13;1.03;;;;;;;;;;5067374;28;20216;-70
2021/09/16 09:33:29;;;;;;;7.33;1.57;;;;;;;;;;5071028;28;20282;-70
2021/09/16 09:36:06;;;;;;;3.70;1.70;;;;;;;;;;5073229;28;20705;-70
2021/09/16 09:38:33;;;;;;;6.90;1.17;;;;;;;;;;5077972;28;20219;-71
2021/09/16 09:41:02;;;;;;;4.73;1.57;;;;;;;;;;5077448;28;20286;-70
2021/09/16 09:43:31;;;;;;;4.30;1.30;;;;;;;;;;5075499;28;20225;-70
2021/09/16 09:46:03;;;;;;;4.13;1.30;;;;;;;;;;5074924;28;20838;-70
2021/09/16 09:48:30;;;;;;;3.13;1.23;;;;;;;;;;5075045;28;20590;-70
2021/09/16 09:50:59;;;;;;;3.97;0.90;;;;;;;;;;5076863;28;21069;-70
2021/09/16 09:53:25;;;;;;;3.70;1.33;;;;;;;;;;5076032;28;20292;-70
2021/09/16 09:55:52;;;;;;;3.60;1.50;;;;;;;;;;5076838;28;20225;-70
2021/09/16 09:58:31;;;;;;;3.37;1.70;;;;;;;;;;5075768;28;20220;-70
2021/09/16 10:00:57;;;;;;;3.57;1.33;;;;;;;;;;5076325;28;20224;-70
2021/09/16 10:03:28;;;;;;;4.17;1.23;;;;;;;;;;5075598;28;20259;-70
2021/09/16 10:06:08;;;;;;;10.30;1.80;;;;;;;;;;5077255;28;20421;-70
2021/09/16 10:08:36;;;;;;;5.00;1.50;;;;;;;;;;5076610;28;20263;-70
2021/09/16 10:11:02;;;;;;;10.23;1.60;;;;;;;;;;5074138;28;20340;-70
2021/09/16 10:13:32;;;;;;;6.17;1.67;;;;;;;;;;5075856;28;20262;-70
2021/09/16 10:16:03;;;;;;;7.30;1.73;;;;;;;;;;5075837;28;20569;-70
2021/09/16 10:18:30;;;;;;;3.73;1.60;;;;;;;;;;5075272;28;20415;-70
2021/09/16 10:20:59;;;;;;;3.53;1.47;;;;;;;;;;5073780;28;20616;-71
2021/09/16 10:23:27;;;;;;;3.67;1.57;;;;;;;;;;5074364;28;20215;-70
2021/09/16 10:25:56;;;;;;;3.33;1.70;;;;;;;;;;5074383;28;20252;-70
2021/09/16 10:28:23;;;;;;;3.67;1.70;;;;;;;;;;5073563;28;20205;-70
2021/09/16 10:30:50;;;;;;;9.87;2.33;;;;;;;;;;5073149;28;20675;-71
2021/09/16 10:33:18;;;;;;;2.30;1.20;;;;;;;;;;5074497;28;20694;-71
2021/09/16 10:35:47;;;;;;;4.67;1.40;;;;;;;;;;5076102;28;20217;-70
2021/09/16 10:38:29;;;;;;;3.53;1.33;;;;;;;;;;5073869;28;20240;-70
2021/09/16 10:41:18;;;;;;;2.40;1.30;;;;;;;;;;5073332;28;20265;-71
2021/09/16 10:43:46;;;;;;;1.97;1.27;;;;;;;;;;5074937;28;20225;-70
2021/09/16 10:46:26;;;;;;;4.90;1.60;;;;;;;;;;5074606;28;20282;-71
2021/09/16 10:48:53;;;;;;;3.13;1.30;;;;;;;;;;5075637;28;20663;-71
2021/09/16 10:51:40;;;;;;;2.70;1.30;;;;;;;;;;5075015;28;20668;-71
2021/09/16 10:54:36;;;;;;;4.23;1.40;;;;;;;;;;5072474;28;20213;-71
2021/09/16 10:57:06;;;;;;;2.20;1.43;;;;;;;;;;5075510;28;20217;-71
2021/09/16 11:00:11;;;;;;;2.13;1.30;;;;;;;;;;5075408;28;20217;-71
2021/09/16 11:03:16;;;;;;;4.53;1.53;;;;;;;;;;5074008;28;20256;-71
2021/09/16 11:05:47;;;;;;;4.33;1.80;;;;;;;;;;5074326;28;20224;-70
2021/09/16 11:08:15;;;;;;;4.03;1.43;;;;;;;;;;5074426;28;20299;-71
2021/09/16 11:10:50;;;;;;;4.87;1.70;;;;;;;;;;5072479;28;20548;-71
2021/09/16 11:13:34;;;;;;;3.53;1.50;;;;;;;;;;5073206;28;20235;-71
2021/09/16 11:16:01;;;;;;;3.90;1.60;;;;;;;;;;5075245;28;20213;-70
2021/09/16 11:18:27;;;;;;;3.67;1.70;;;;;;;;;;5073692;28;20283;-71
2021/09/16 11:20:57;;;;;;;1.73;1.40;;;;;;;;;;5071785;28;20221;-70
2021/09/16 11:23:34;;;;;;;3.73;1.80;;;;;;;;;;5072168;28;20278;-71
2021/09/16 11:26:00;;;;;;;5.67;1.43;;;;;;;;;;5076144;28;21107;-71
2021/09/16 11:28:27;;;;;;;2.60;1.50;;;;;;;;;;5073670;28;20224;-70
2021/09/16 11:30:54;;;;;;;3.00;1.80;;;;;;;;;;5074543;28;20243;-71
2021/09/16 11:33:22;;;;;;;2.97;1.50;;;;;;;;;;5073907;28;20724;-71
2021/09/16 11:35:49;;;;;;;3.67;1.60;;;;;;;;;;5074559;28;20645;-71
2021/09/16 11:38:16;;;;;;;2.87;1.87;;;;;;;;;;5073413;28;20238;-71
2021/09/16 11:40:44;;;;;;;4.27;2.00;;;;;;;;;;5073426;28;20228;-71
2021/09/16 11:43:13;;;;;;;4.93;1.70;;;;;;;;;;5073965;28;20217;-71
2021/09/16 11:45:40;;;;;;;4.70;2.10;;;;;;;;;;5074836;28;20291;-71
2021/09/16 11:48:09;;;;;;;3.07;1.90;;;;;;;;;;5073562;28;20577;-71
2021/09/16 11:50:39;;;;;;;3.07;1.50;;;;;;;;;;5074376;28;20213;-71
2021/09/16 11:53:07;;;;;;;3.03;1.90;;;;;;;;;;5072904;28;20260;-71
2021/09/16 11:55:35;;;;;;;13.33;2.33;;;;;;;;;;5072301;28;20237;-71
2021/09/16 11:58:11;;;;;;;5.17;1.73;;;;;;;;;;5073515;28;20216;-71
2021/09/16 12:00:44;;;;;;;4.07;1.77;;;;;;;;;;5073952;28;20208;-71
2021/09/16 12:03:13;;;;;;;3.00;1.90;;;;;;;;;;5072118;28;20263;-71
2021/09/16 12:05:48;;;;;;;4.40;1.90;;;;;;;;;;5073667;28;20706;-71
2021/09/16 12:08:20;;;;;;;2.40;1.70;;;;;;;;;;5071610;28;20203;-71
2021/09/16 12:10:50;;;;;;;3.87;2.07;;;;;;;;;;5075855;28;20329;-71
2021/09/16 12:13:20;;;;;;;4.03;2.10;;;;;;;;;;5071010;28;20696;-71
2021/09/16 12:15:48;;;;;;;3.90;2.00;;;;;;;;;;5073594;28;20213;-71
2021/09/16 12:18:17;;;;;;;3.23;2.10;;;;;;;;;;5070207;28;20282;-71
2021/09/16 12:20:46;;;;;;;4.40;2.10;;;;;;;;;;5072985;28;20890;-71
2021/09/16 12:23:14;;;;;;;5.83;2.30;;;;;;;;;;5071093;28;20261;-72
2021/09/16 12:25:58;;;;;;;4.50;2.40;;;;;;;;;;5073580;28;20236;-71
2021/09/16 12:28:25;;;;;;;6.73;2.20;;;;;;;;;;5071474;28;20231;-71
2021/09/16 12:30:52;;;;;;;4.00;2.43;;;;;;;;;;5071101;28;20222;-72
2021/09/16 12:33:35;;;;;;;3.60;2.20;;;;;;;;;;5074453;28;20256;-71
2021/09/16 12:36:23;;;;;;;2.30;2.10;;;;;;;;;;5072866;28;20212;-71
2021/09/16 12:38:51;;;;;;;2.87;1.93;;;;;;;;;;5072917;28;20220;-71
2021/09/16 12:41:43;;;;;;;3.37;2.00;;;;;;;;;;5074250;28;20213;-71
2021/09/16 12:44:18;;;;;;;4.30;2.30;;;;;;;;;;5068332;28;20214;-71
2021/09/16 12:46:50;;;;;;;2.37;2.17;;;;;;;;;;5071186;28;20232;-71
2021/09/16 12:49:30;;;;;;;3.47;2.00;;;;;;;;;;5072052;28;20682;-72
2021/09/16 12:51:58;;;;;;;2.10;1.90;;;;;;;;;;5071964;28;20212;-72
2021/09/16 12:54:25;;;;;;;3.30;2.40;;;;;;;;;;5071344;28;20262;-71
2021/09/16 12:56:52;;;;;;;2.87;1.73;;;;;;;;;;5075211;28;20266;-71
2021/09/16 12:59:19;;;;;;;3.27;2.30;;;;;;;;;;5072256;28;20240;-71
2021/09/16 13:01:46;;;;;;;4.03;2.20;;;;;;;;;;5073432;28;20711;-71
2021/09/16 13:04:13;;;;;;;2.90;2.20;;;;;;;;;;5072069;28;20210;-71
2021/09/16 13:06:41;;;;;;;4.57;2.50;;;;;;;;;;5077249;28;20228;-71
2021/09/16 13:09:08;;;;;;;3.10;1.93;;;;;;;;;;5070304;28;20264;-72
2021/09/16 13:11:34;;;;;;;4.53;2.30;;;;;;;;;;5078681;28;20210;-71
2021/09/16 13:14:12;;;;;;;4.63;2.03;;;;;;;;;;5078451;28;20568;-71
2021/09/16 13:16:41;;;;;;;5.20;2.10;;;;;;;;;;5078548;28;20226;-71
2021/09/16 13:19:09;;;;;;;4.33;1.93;;;;;;;;;;5076420;28;20216;-71
2021/09/16 13:21:36;;;;;;;7.53;1.90;;;;;;;;;;5077884;28;20281;-71
2021/09/16 13:24:05;;;;;;;6.23;1.83;;;;;;;;;;5079784;28;20785;-71
2021/09/16 13:26:31;;;;;;;3.80;1.97;;;;;;;;;;5077583;28;20236;-71
2021/09/16 13:28:58;;;;;;;4.33;2.07;;;;;;;;;;5079020;28;20224;-71
2021/09/16 13:31:26;;;;;;;2.90;1.70;;;;;;;;;;5076682;28;20539;-71
2021/09/16 13:33:53;;;;;;;5.37;1.77;;;;;;;;;;5079791;28;20254;-71
2021/09/16 13:36:20;;;;;;;3.13;1.50;;;;;;;;;;5071467;28;20220;-71
2021/09/16 13:38:46;;;;;;;2.20;1.80;;;;;;;;;;5077779;28;20287;-71
2021/09/16 13:41:14;;;;;;;5.07;2.07;;;;;;;;;;5076895;28;20209;-71
2021/09/16 13:43:40;;;;;;;3.17;1.87;;;;;;;;;;5077045;28;20220;-71
2021/09/16 13:46:07;;;;;;;20.83;2.33;;;;;;;;;;5076920;28;20256;-71
2021/09/16 13:48:33;;;;;;;3.33;2.03;;;;;;;;;;5076127;28;20240;-71
2021/09/16 13:51:00;;;;;;;1.93;1.63;;;;;;;;;;5077739;28;20209;-71
2021/09/16 13:53:27;;;;;;;2.97;1.83;;;;;;;;;;5077153;28;20622;-71
2021/09/16 13:55:53;;;;;;;4.50;2.10;;;;;;;;;;5077821;28;20513;-71
2021/09/16 13:58:21;;;;;;;2.83;1.90;;;;;;;;;;5077129;28;20208;-71
2021/09/16 14:00:47;;;;;;;2.93;1.43;;;;;;;;;;5078165;28;20208;-72
2021/09/16 14:03:14;;;;;;;2.67;2.00;;;;;;;;;;5077995;28;20248;-74
2021/09/16 14:05:40;;;;;;;3.33;1.50;;;;;;;;;;5079149;28;20244;-73
2021/09/16 14:08:07;;;;;;;4.13;2.00;;;;;;;;;;5078251;28;20212;-72
2021/09/16 14:10:33;;;;;;;3.10;2.80;;;;;;;;;;5076352;28;20221;-74
2021/09/16 14:13:00;;;;;;;2.73;2.20;;;;;;;;;;5077043;28;20212;-72
2021/09/16 14:15:27;;;;;;;3.70;2.50;;;;;;;;;;5077722;28;20231;-73
2021/09/16 14:17:54;;;;;;;5.10;2.47;;;;;;;;;;5072723;28;20228;-72
2021/09/16 14:20:20;;;;;;;5.33;2.47;;;;;;;;;;5078706;28;20223;-72
2021/09/16 14:22:47;;;;;;;2.93;2.37;;;;;;;;;;5075865;28;20217;-73
2021/09/16 14:25:13;;;;;;;3.43;2.63;;;;;;;;;;5074339;28;20230;-73
2021/09/16 14:27:40;;;;;;;4.73;2.47;;;;;;;;;;5074936;28;20216;-73
2021/09/16 14:30:08;;;;;;;4.17;2.73;;;;;;;;;;5072393;28;20209;-73
2021/09/16 14:32:36;;;;;;;4.73;2.70;;;;;;;;;;5076112;28;20235;-73
2021/09/16 14:35:02;;;;;;;4.33;3.00;;;;;;;;;;5075025;28;20214;-72
2021/09/16 14:37:29;;;;;;;4.27;2.97;;;;;;;;;;5073789;28;20242;-72
2021/09/16 14:39:55;;;;;;;4.17;3.43;;;;;;;;;;5073503;28;21066;-72
2021/09/16 14:42:23;;;;;;;5.17;3.13;;;;;;;;;;5073608;28;20224;-72
2021/09/16 14:44:49;;;;;;;4.03;3.17;;;;;;;;;;5074063;28;20217;-73